TimeCDT,TemperatureF,Dew PointF,Humidity,Sea Level PressureIn,VisibilityMPH,Wind Direction,Wind SpeedMPH,Gust SpeedMPH,PrecipitationIn,Events,Conditions,WindDirDegrees,DateUTC
12:54 AM,48.0,46.0,93,30.18,10.0,Calm,Calm,-,N/A,,Clear,0,2011-10-03 05:54:00
1:54 AM,48.0,45.0,89,30.18,10.0,Calm,Calm,-,N/A,,Clear,0,2011-10-03 06:54:00
2:54 AM,46.9,45.0,93,30.18,10.0,Calm,Calm,-,N/A,,Clear,0,2011-10-03 07:54:00
3:54 AM,46.0,44.1,93,30.19,10.0,Calm,Calm,-,N/A,,Clear,0,2011-10-03 08:54:00
4:54 AM,45.0,43.0,93,30.20,10.0,Calm,Calm,-,N/A,,Clear,0,2011-10-03 09:54:00
5:54 AM,45.0,43.0,93,30.21,10.0,Calm,Calm,-,N/A,,Clear,0,2011-10-03 10:54:00
6:54 AM,44.1,42.1,93,30.23,10.0,Calm,Calm,-,N/A,,Clear,0,2011-10-03 11:54:00
7:54 AM,48.0,44.1,86,30.25,10.0,Calm,Calm,-,N/A,,Clear,0,2011-10-03 12:54:00
8:54 AM,57.9,45.0,62,30.27,10.0,Calm,Calm,-,N/A,,Clear,0,2011-10-03 13:54:00
9:54 AM,64.9,39.9,40,30.28,10.0,ESE,6.9,-,N/A,,Clear,120,2011-10-03 14:54:00
10:54 AM,68.0,37.9,33,30.28,10.0,Variable,3.5,-,N/A,,Clear,0,2011-10-03 15:54:00
11:54 AM,71.1,34.0,26,30.27,10.0,ENE,3.5,-,N/A,,Clear,70,2011-10-03 16:54:00
12:54 PM,73.4,35.6,25,30.25,10.0,North,3.5,-,N/A,,Clear,10,2011-10-03 17:54:00
1:54 PM,75.9,39.9,27,30.22,10.0,NNW,6.9,-,N/A,,Clear,340,2011-10-03 18:54:00
2:54 PM,75.2,41.0,29,30.21,10.0,North,5.8,-,N/A,,Clear,360,2011-10-03 19:54:00
3:54 PM,75.9,41.0,29,30.19,10.0,NNE,6.9,-,N/A,,Clear,20,2011-10-03 20:54:00
4:54 PM,75.2,41.0,29,30.19,10.0,NNW,4.6,-,N/A,,Clear,340,2011-10-03 21:54:00
5:54 PM,73.9,41.0,30,30.18,10.0,NNE,4.6,-,N/A,,Clear,20,2011-10-03 22:54:00
6:54 PM,63.0,48.0,58,30.19,10.0,Calm,Calm,-,N/A,,Clear,0,2011-10-03 23:54:00
7:54 PM,59.0,48.0,67,30.20,10.0,Calm,Calm,-,N/A,,Clear,0,2011-10-04 00:54:00
8:54 PM,57.0,48.9,74,30.21,10.0,Calm,Calm,-,N/A,,Clear,0,2011-10-04 01:54:00
9:54 PM,55.0,48.0,77,30.22,10.0,Calm,Calm,-,N/A,,Clear,0,2011-10-04 02:54:00
10:54 PM,53.1,48.0,83,30.22,10.0,Calm,Calm,-,N/A,,Clear,0,2011-10-04 03:54:00
11:54 PM,51.1,46.0,83,30.22,10.0,Calm,Calm,-,N/A,,Clear,0,2011-10-04 04:54:00